createdAt,value
2023-03-26T00:03:47.559Z,25.10
2023-03-26T00:07:47.716Z,25.10
2023-03-26T00:11:47.895Z,25.08
2023-03-26T00:15:47.953Z,25.08
2023-03-26T00:19:48.156Z,25.07
2023-03-26T00:23:48.287Z,25.06
2023-03-26T00:27:48.612Z,25.06
2023-03-26T00:31:48.654Z,25.05
2023-03-26T00:35:48.796Z,25.05
2023-03-26T00:39:48.982Z,25.03
2023-03-26T00:43:49.250Z,25.02
2023-03-26T00:47:49.487Z,25.02
2023-03-26T00:51:49.527Z,25.01
2023-03-26T00:55:49.698Z,25.02
2023-03-26T00:59:49.879Z,25.00
2023-03-26T01:04:04.912Z,25.00
2023-03-26T01:07:51.125Z,24.98
2023-03-26T01:11:49.945Z,24.98
2023-03-26T01:15:50.173Z,24.98
2023-03-26T01:19:50.395Z,24.97
2023-03-26T01:23:50.545Z,24.97
2023-03-26T01:27:50.776Z,24.96
2023-03-26T01:31:50.822Z,24.95
2023-03-26T01:35:51.113Z,24.94
2023-03-26T01:39:51.340Z,24.93
2023-03-26T01:43:51.474Z,24.93
2023-03-26T01:47:51.660Z,24.93
2023-03-26T01:51:51.908Z,24.92
2023-03-26T01:55:52.198Z,24.91
2023-03-26T01:59:52.235Z,24.90
2023-03-26T02:03:52.446Z,24.90
2023-03-26T02:07:52.649Z,24.89
2023-03-26T02:11:52.963Z,24.89
2023-03-26T02:15:53.368Z,24.89
2023-03-26T02:19:53.264Z,24.88
2023-03-26T02:23:53.499Z,24.87
2023-03-26T02:27:53.470Z,24.87
2023-03-26T02:31:53.472Z,24.86
2023-03-26T02:35:53.819Z,24.85
2023-03-26T02:39:53.341Z,24.84
2023-03-26T02:43:53.296Z,24.84
2023-03-26T02:47:53.322Z,24.83
2023-03-26T02:51:53.243Z,24.83
2023-03-26T02:55:53.414Z,24.82
2023-03-26T02:59:53.178Z,24.82
2023-03-26T03:03:53.157Z,24.81
2023-03-26T03:07:53.127Z,24.80
2023-03-26T03:11:53.123Z,24.79
2023-03-26T03:15:53.170Z,24.79
2023-03-26T03:19:52.987Z,24.79
2023-03-26T03:23:53.026Z,24.78
2023-03-26T03:27:52.918Z,24.78
2023-03-26T03:31:52.957Z,24.76
2023-03-26T03:35:53.076Z,24.76
2023-03-26T03:39:52.808Z,24.75
2023-03-26T03:43:52.959Z,24.74
2023-03-26T03:47:53.134Z,24.74
2023-03-26T03:51:52.890Z,24.74
2023-03-26T03:55:53.107Z,24.73
2023-03-26T03:59:52.749Z,24.72
2023-03-26T04:03:52.865Z,24.72
2023-03-26T04:07:52.707Z,24.71
2023-03-26T04:11:52.723Z,24.71
2023-03-26T04:15:52.840Z,24.70
2023-03-26T04:19:52.651Z,24.70
2023-03-26T04:23:52.885Z,24.69
2023-03-26T04:27:53.013Z,24.68
2023-03-26T04:31:53.183Z,24.68
2023-03-26T04:35:53.488Z,24.66
2023-03-26T04:39:53.449Z,24.66
2023-03-26T04:43:53.758Z,24.66
2023-03-26T04:47:54.380Z,24.65
2023-03-26T04:51:54.071Z,24.65
2023-03-26T04:55:54.545Z,24.65
2023-03-26T04:59:54.468Z,24.63
2023-03-26T05:03:54.736Z,24.62
2023-03-26T05:07:54.740Z,24.63
2023-03-26T05:11:54.921Z,24.63
2023-03-26T05:15:55.136Z,24.62
2023-03-26T05:19:55.244Z,24.62
2023-03-26T05:23:55.399Z,24.62
2023-03-26T05:27:55.539Z,24.61
2023-03-26T05:31:55.718Z,24.61
2023-03-26T05:35:55.892Z,24.61
2023-03-26T05:39:56.035Z,24.60
2023-03-26T05:43:56.202Z,24.60
2023-03-26T05:47:56.376Z,24.60
2023-03-26T05:51:56.444Z,24.59
2023-03-26T05:55:56.426Z,24.60
2023-03-26T05:59:56.423Z,24.60
2023-03-26T06:03:56.408Z,24.59
2023-03-26T06:07:56.365Z,24.60
2023-03-26T06:11:56.304Z,24.61
2023-03-26T06:15:56.274Z,24.62
2023-03-26T06:19:56.229Z,24.62
2023-03-26T06:23:56.174Z,24.64
2023-03-26T06:27:56.102Z,24.66
2023-03-26T06:31:59.580Z,24.66
2023-03-26T06:35:57.127Z,24.67
2023-03-26T06:39:56.016Z,24.70
2023-03-26T06:43:56.183Z,24.75
2023-03-26T06:47:56.234Z,24.79
2023-03-26T06:51:56.137Z,24.82
2023-03-26T06:55:56.071Z,24.86
2023-03-26T06:59:56.066Z,24.88
2023-03-26T07:03:56.041Z,24.93
2023-03-26T07:07:55.994Z,24.94
2023-03-26T07:11:55.900Z,24.99
2023-03-26T07:15:55.906Z,25.17
2023-03-26T07:19:55.951Z,25.46
2023-03-26T07:23:56.705Z,25.68
2023-03-26T07:27:55.772Z,25.94
2023-03-26T07:31:55.911Z,25.87
2023-03-26T07:35:55.871Z,25.72
2023-03-26T07:39:55.867Z,25.63
2023-03-26T07:43:55.893Z,25.58
2023-03-26T07:47:55.876Z,25.56
2023-03-26T07:51:55.736Z,25.62
2023-03-26T07:55:55.719Z,25.68
2023-03-26T07:59:55.643Z,25.77
2023-03-26T08:03:55.685Z,25.81
2023-03-26T08:07:55.587Z,25.86
2023-03-26T08:11:55.511Z,25.90
2023-03-26T08:15:55.545Z,25.88
2023-03-26T08:19:55.469Z,25.85
2023-03-26T08:23:55.441Z,25.80
2023-03-26T08:27:55.411Z,25.75
2023-03-26T08:31:55.336Z,25.73
2023-03-26T08:35:55.329Z,25.82
2023-03-26T08:39:55.288Z,25.84
2023-03-26T08:43:55.652Z,25.84
2023-03-26T08:47:55.249Z,25.86
2023-03-26T08:51:55.219Z,25.84
2023-03-26T08:55:55.344Z,25.87
2023-03-26T08:59:55.313Z,25.90
2023-03-26T09:03:55.325Z,25.93
2023-03-26T09:07:55.282Z,25.89
2023-03-26T09:11:55.193Z,25.84
2023-03-26T09:15:55.240Z,25.82
2023-03-26T09:19:55.112Z,25.79
2023-03-26T09:23:55.102Z,25.76
2023-03-26T09:27:55.050Z,25.75
2023-03-26T09:31:55.101Z,25.74
2023-03-26T09:35:55.071Z,25.72
2023-03-26T09:39:54.986Z,25.72
2023-03-26T09:43:54.900Z,25.72
2023-03-26T09:47:54.971Z,25.73
2023-03-26T09:51:54.803Z,25.75
2023-03-26T09:55:54.995Z,25.78
2023-03-26T09:59:54.910Z,25.80
2023-03-26T10:03:55.096Z,25.81
2023-03-26T10:07:55.071Z,25.81
2023-03-26T10:11:55.044Z,25.82
2023-03-26T10:15:55.029Z,25.83
2023-03-26T10:19:54.958Z,25.83
2023-03-26T10:23:54.888Z,25.82
2023-03-26T10:27:54.904Z,25.80
2023-03-26T10:31:54.818Z,25.80
2023-03-26T10:35:54.812Z,25.79
2023-03-26T10:39:54.772Z,25.78
2023-03-26T10:44:07.217Z,25.76
2023-03-26T10:47:55.744Z,25.75
2023-03-26T10:51:54.654Z,25.76
2023-03-26T10:55:54.683Z,25.76
2023-03-26T10:59:54.811Z,25.77
2023-03-26T11:03:54.969Z,25.78
2023-03-26T11:07:55.113Z,25.78
2023-03-26T11:11:55.315Z,25.80
2023-03-26T11:15:55.662Z,25.82
2023-03-26T11:19:55.557Z,25.86
2023-03-26T11:24:05.668Z,25.88
2023-03-26T11:27:56.672Z,25.89
2023-03-26T11:31:55.637Z,25.90
2023-03-26T11:35:55.882Z,25.91
2023-03-26T11:39:56.671Z,25.94
2023-03-26T11:43:56.021Z,25.97
2023-03-26T11:47:55.825Z,26.00
2023-03-26T11:51:55.740Z,26.00
2023-03-26T11:55:55.712Z,25.99
2023-03-26T11:59:57.498Z,25.97
2023-03-26T12:03:55.765Z,25.96
2023-03-26T12:07:55.970Z,25.95
2023-03-26T12:11:56.144Z,25.94
2023-03-26T12:15:56.478Z,25.91
2023-03-26T12:19:56.370Z,25.88
2023-03-26T12:23:56.469Z,25.87
2023-03-26T12:27:56.209Z,25.85
2023-03-26T12:31:56.264Z,25.84
2023-03-26T12:35:56.266Z,25.83
2023-03-26T12:40:09.418Z,25.82
2023-03-26T12:44:50.584Z,25.80
2023-03-26T12:48:03.866Z,25.79
2023-03-26T12:51:57.029Z,25.77
2023-03-26T12:55:55.995Z,25.76
2023-03-26T12:59:55.924Z,25.74
2023-03-26T13:03:55.943Z,25.73
2023-03-26T13:07:55.867Z,25.72
2023-03-26T13:11:56.058Z,25.71
2023-03-26T13:15:55.833Z,25.70
2023-03-26T13:19:55.742Z,25.69
2023-03-26T13:23:56.055Z,25.68
2023-03-26T13:27:56.053Z,25.67
2023-03-26T13:31:55.667Z,25.65
2023-03-26T13:36:06.040Z,25.64
2023-03-26T13:39:56.615Z,25.63
2023-03-26T13:43:55.531Z,25.63
2023-03-26T13:47:55.573Z,25.61
2023-03-26T13:51:55.416Z,25.60
2023-03-26T13:55:55.438Z,25.59
2023-03-26T13:59:55.402Z,25.58
2023-03-26T14:03:55.373Z,25.58
2023-03-26T14:07:55.319Z,25.57
2023-03-26T14:11:55.301Z,25.56
2023-03-26T14:15:55.362Z,25.54
2023-03-26T14:19:55.574Z,25.53
2023-03-26T14:23:55.162Z,25.52
2023-03-26T14:27:55.192Z,25.52
2023-03-26T14:31:55.228Z,25.52
2023-03-26T14:35:55.203Z,25.51
2023-03-26T14:39:55.143Z,25.50
2023-03-26T14:43:55.087Z,25.49
2023-03-26T14:47:55.263Z,25.48
2023-03-26T14:51:55.247Z,25.46
2023-03-26T14:55:55.222Z,25.46
2023-03-26T14:59:55.205Z,25.45
2023-03-26T15:03:55.237Z,25.44
2023-03-26T15:07:55.262Z,25.43
2023-03-26T15:11:55.305Z,25.41
2023-03-26T15:15:56.260Z,25.41
2023-03-26T15:19:55.221Z,25.39
2023-03-26T15:23:55.208Z,25.39
2023-03-26T15:27:55.173Z,25.38
2023-03-26T15:31:55.157Z,25.36
2023-03-26T15:35:57.365Z,25.35
2023-03-26T15:39:59.111Z,25.35
2023-03-26T15:44:23.862Z,25.32
2023-03-26T15:47:56.195Z,25.32
2023-03-26T15:51:55.070Z,25.32
2023-03-26T15:55:55.033Z,25.31
2023-03-26T15:59:55.031Z,25.31
2023-03-26T16:03:54.958Z,25.30
2023-03-26T16:07:55.021Z,25.29
2023-03-26T16:11:54.914Z,25.28
2023-03-26T16:15:54.949Z,25.27
2023-03-26T16:19:54.812Z,25.26
2023-03-26T16:23:54.847Z,25.25
2023-03-26T16:27:54.869Z,25.24
2023-03-26T16:31:55.062Z,25.23
2023-03-26T16:35:55.150Z,25.22
2023-03-26T16:39:55.256Z,25.21
2023-03-26T16:43:55.314Z,25.21
2023-03-26T16:47:55.500Z,25.19
2023-03-26T16:51:55.663Z,25.18
2023-03-26T16:55:55.698Z,25.17
2023-03-26T17:00:04.626Z,25.16
2023-03-26T17:03:56.764Z,25.15
2023-03-26T17:07:55.754Z,25.14
2023-03-26T17:11:55.678Z,25.13
2023-03-26T17:15:55.903Z,25.11
2023-03-26T17:19:55.985Z,25.10
2023-03-26T17:23:56.112Z,25.08
2023-03-26T17:27:56.302Z,25.07
2023-03-26T17:31:56.491Z,25.06
2023-03-26T17:35:56.689Z,25.05
2023-03-26T17:39:56.888Z,25.04
2023-03-26T17:43:57.029Z,25.03
2023-03-26T17:47:57.315Z,25.02
2023-03-26T17:51:58.347Z,25.02
2023-03-26T17:55:57.839Z,25.02
2023-03-26T17:59:57.771Z,25.01
2023-03-26T18:03:58.233Z,24.99
2023-03-26T18:07:58.160Z,24.99
2023-03-26T18:11:58.346Z,24.97
2023-03-26T18:15:58.649Z,24.96
2023-03-26T18:19:58.714Z,24.95
2023-03-26T18:23:59.623Z,24.95
2023-03-26T18:27:59.183Z,24.92
2023-03-26T18:31:59.427Z,24.91
2023-03-26T18:35:59.576Z,24.90
2023-03-26T18:39:59.786Z,24.90
2023-03-26T18:44:00.006Z,24.88
2023-03-26T18:47:59.995Z,24.87
2023-03-26T18:51:59.877Z,24.86
2023-03-26T18:55:59.874Z,24.86
2023-03-26T18:59:59.861Z,24.86
2023-03-26T19:03:59.825Z,24.85
2023-03-26T19:07:59.757Z,24.84
2023-03-26T19:11:59.662Z,24.83
2023-03-26T19:15:59.699Z,24.84
2023-03-26T19:19:59.619Z,24.83
2023-03-26T19:23:59.751Z,24.81
2023-03-26T19:27:59.721Z,24.81
2023-03-26T19:31:59.729Z,24.81
2023-03-26T19:35:59.662Z,24.80
2023-03-26T19:39:59.613Z,24.79
2023-03-26T19:43:59.576Z,24.78
2023-03-26T19:51:59.522Z,24.77
2023-03-26T19:55:59.498Z,24.76
2023-03-26T19:59:59.415Z,24.76
2023-03-26T20:03:59.607Z,24.76
2023-03-26T20:07:59.484Z,24.75
2023-03-26T20:11:59.532Z,24.75
2023-03-26T20:16:06.120Z,24.74
2023-03-26T20:20:00.447Z,24.73
2023-03-26T20:23:59.332Z,24.73
2023-03-26T20:27:59.517Z,24.73
2023-03-26T20:31:59.451Z,24.72
2023-03-26T20:35:59.950Z,24.71
2023-03-26T20:39:59.366Z,24.70
2023-03-26T20:43:59.413Z,24.70
2023-03-26T20:47:59.419Z,24.70
2023-03-26T20:51:59.303Z,24.69
2023-03-26T20:55:59.230Z,24.69
2023-03-26T20:59:59.200Z,24.67
2023-03-26T21:03:59.152Z,24.67
2023-03-26T21:07:59.249Z,24.66
2023-03-26T21:11:59.408Z,24.66
2023-03-26T21:16:01.004Z,24.65
2023-03-26T21:19:59.666Z,24.64
2023-03-26T21:23:59.623Z,24.64
2023-03-26T21:27:59.774Z,24.63
2023-03-26T21:31:59.708Z,24.62
2023-03-26T21:35:59.942Z,24.63
2023-03-26T21:39:59.918Z,24.62
2023-03-26T21:44:00.006Z,24.60
2023-03-26T21:48:00.159Z,24.60
2023-03-26T21:52:00.209Z,24.60
2023-03-26T21:56:00.211Z,24.58
2023-03-26T22:00:00.256Z,24.59
2023-03-26T22:04:00.383Z,24.58
2023-03-26T22:08:00.293Z,24.57
2023-03-26T22:12:00.346Z,24.57
2023-03-26T22:16:00.366Z,24.56
2023-03-26T22:20:01.288Z,24.55
2023-03-26T22:24:00.445Z,24.55
2023-03-26T22:28:00.432Z,24.55
2023-03-26T22:32:00.408Z,24.54
2023-03-26T22:36:00.600Z,24.54
2023-03-26T22:40:00.488Z,24.52
2023-03-26T22:44:09.372Z,24.52
2023-03-26T22:48:03.470Z,24.51
2023-03-26T22:52:00.428Z,24.50
2023-03-26T22:56:00.409Z,24.51
2023-03-26T23:00:00.353Z,24.49
2023-03-26T23:04:00.345Z,24.49
2023-03-26T23:08:00.301Z,24.48
2023-03-26T23:12:00.264Z,24.47
2023-03-26T23:16:00.215Z,24.47
2023-03-26T23:20:00.212Z,24.46
2023-03-26T23:24:00.191Z,24.46
2023-03-26T23:28:00.110Z,24.45
2023-03-26T23:32:00.111Z,24.44
2023-03-26T23:36:00.141Z,24.45
2023-03-26T23:40:00.003Z,24.44
2023-03-26T23:43:59.973Z,24.43
2023-03-26T23:47:59.912Z,24.43
2023-03-26T23:51:59.871Z,24.43
2023-03-26T23:55:59.845Z,24.42
2023-03-26T23:59:59.830Z,24.42
